Time;durP1;ratioP1;P1;durP2;ratioP2;P2;SDS_P1;SDS_P2;PMS_P1;PMS_P2;Temp;Humidity;BMP_temperature;BMP_pressure;BME280_temperature;BME280_humidity;BME280_pressure;Samples;Min_cycle;Max_cycle;Signal;HPM_P1;HPM_P2
2022/05/23 00:00:36;;;;;;;4.22;1.70;;;16.10;99.10;;;;;;4974685;28;20018;-75
2022/05/23 00:03:08;;;;;;;6.13;2.17;;;16.00;99.10;;;;;;4971946;28;20114;-76
2022/05/23 00:05:36;;;;;;;3.35;1.48;;;16.00;99.20;;;;;;4968221;28;20506;-76
2022/05/23 00:08:02;;;;;;;2.10;1.58;;;16.00;99.50;;;;;;4958544;28;20035;-76
2022/05/23 00:10:34;;;;;;;3.70;1.10;;;15.90;99.60;;;;;;4954575;28;20085;-76
2022/05/23 00:13:03;;;;;;;2.72;1.42;;;15.90;99.90;;;;;;4972467;28;20514;-76
2022/05/23 00:15:29;;;;;;;4.63;1.73;;;15.90;99.90;;;;;;4973768;28;20026;-76
2022/05/23 00:17:58;;;;;;;2.60;1.60;;;15.80;99.90;;;;;;4958281;28;20034;-76
2022/05/23 00:20:24;;;;;;;3.45;1.80;;;15.80;99.90;;;;;;4956379;28;20030;-74
2022/05/23 00:22:53;;;;;;;4.53;1.70;;;15.80;99.90;;;;;;4970275;28;20034;-74
2022/05/23 00:25:19;;;;;;;3.05;1.58;;;15.70;99.90;;;;;;4977096;28;20058;-74
2022/05/23 00:27:46;;;;;;;3.58;1.55;;;15.70;99.90;;;;;;4979240;28;20122;-74
2022/05/23 00:30:18;;;;;;;2.38;1.55;;;15.60;99.90;;;;;;4952462;28;20031;-74
2022/05/23 00:35:35;;;;;;;2.17;1.60;;;15.60;99.90;;;;;;4974081;28;20065;-73
2022/05/23 00:38:01;;;;;;;2.90;1.40;;;15.50;99.90;;;;;;4971453;28;20049;-74
2022/05/23 00:40:45;;;;;;;2.13;1.38;;;15.50;99.90;;;;;;4970755;28;20023;-73
2022/05/23 00:43:20;;;;;;;3.22;1.95;;;15.40;99.90;;;;;;4970541;28;20172;-74
2022/05/23 00:46:10;;;;;;;4.57;1.77;;;15.40;99.90;;;;;;4968648;28;20034;-74
2022/05/23 00:48:36;;;;;;;4.40;1.90;;;15.40;99.90;;;;;;4961993;28;20395;-74
2022/05/23 00:51:09;;;;;;;4.90;1.67;;;15.40;99.90;;;;;;4971880;28;20053;-74
2022/05/23 00:53:51;;;;;;;2.53;1.35;;;15.30;99.90;;;;;;4972949;28;20050;-74
2022/05/23 00:56:22;;;;;;;3.80;1.92;;;15.40;99.90;;;;;;4970298;28;20018;-76
2022/05/23 00:58:51;;;;;;;3.25;1.70;;;15.30;99.90;;;;;;4975832;28;20030;-74
2022/05/23 01:01:22;;;;;;;3.55;1.83;;;15.30;99.90;;;;;;4955042;28;20026;-74
2022/05/23 01:03:51;;;;;;;3.80;1.85;;;15.30;99.90;;;;;;4972714;28;20037;-74
2022/05/23 01:06:20;;;;;;;6.13;2.30;;;15.30;99.90;;;;;;4956078;28;20074;-74
2022/05/23 01:08:57;;;;;;;3.22;2.55;;;15.30;99.90;;;;;;4955421;28;20070;-76
2022/05/23 01:11:24;;;;;;;4.63;2.42;;;15.30;99.90;;;;;;4967295;28;20033;-74
2022/05/23 01:13:53;;;;;;;5.38;2.08;;;15.20;99.90;;;;;;4975116;28;20485;-76
2022/05/23 01:16:24;;;;;;;2.50;1.95;;;15.20;99.90;;;;;;4970743;28;20031;-76
2022/05/23 01:18:56;;;;;;;3.60;1.75;;;15.20;99.90;;;;;;4975191;28;20050;-75
2022/05/23 01:21:58;;;;;;;4.72;1.83;;;15.20;99.90;;;;;;4967486;28;20618;-74
2022/05/23 01:24:32;;;;;;;5.47;2.03;;;15.20;99.90;;;;;;4968007;28;20088;-74
2022/05/23 01:26:58;;;;;;;;;;;15.20;99.90;;;;;;4976238;28;20098;-74
2022/05/23 01:29:26;;;;;;;3.78;2.60;;;15.20;99.90;;;;;;4973323;28;20024;-74
2022/05/23 01:31:59;;;;;;;5.95;2.45;;;15.20;99.90;;;;;;4976208;28;20043;-74
2022/05/23 01:34:26;;;;;;;2.30;2.10;;;15.20;99.90;;;;;;4981273;28;20026;-75
2022/05/23 01:36:53;;;;;;;5.20;2.83;;;15.20;99.90;;;;;;4961984;28;20462;-74
2022/05/23 01:39:19;;;;;;;5.18;2.67;;;15.20;99.90;;;;;;4979540;28;20165;-74
2022/05/23 01:41:45;;;;;;;4.88;2.72;;;15.10;99.90;;;;;;4977509;28;20113;-74
2022/05/23 01:44:17;;;;;;;6.15;2.70;;;15.10;99.90;;;;;;4976243;28;20038;-76
2022/05/23 01:46:42;;;;;;;4.10;2.30;;;15.10;99.90;;;;;;4976144;28;20023;-74
2022/05/23 01:49:14;;;;;;;3.20;1.95;;;15.10;99.90;;;;;;4972596;28;20050;-74
2022/05/23 01:51:46;;;;;;;6.95;2.30;;;15.10;99.90;;;;;;4978324;28;20082;-75
2022/05/23 01:54:15;;;;;;;8.95;2.53;;;15.10;99.90;;;;;;4959102;28;20046;-74
2022/05/23 01:56:43;;;;;;;3.67;2.00;;;15.10;99.90;;;;;;4976052;28;20037;-74
2022/05/23 02:01:56;;;;;;;3.47;2.40;;;15.10;99.90;;;;;;4976333;28;20555;-74
2022/05/23 02:04:22;;;;;;;3.72;2.28;;;15.00;99.90;;;;;;4971430;28;20034;-74
2022/05/23 02:06:48;;;;;;;3.03;2.00;;;15.00;99.90;;;;;;4979528;28;20035;-75
2022/05/23 02:09:13;;;;;;;3.47;2.17;;;15.00;99.90;;;;;;4981038;28;20423;-74
2022/05/23 02:11:39;;;;;;;2.80;2.10;;;14.90;99.90;;;;;;4957730;28;20062;-73
2022/05/23 02:14:07;;;;;;;3.25;2.08;;;14.90;99.90;;;;;;4955384;28;20058;-75
2022/05/23 02:16:33;;;;;;;5.78;2.20;;;14.90;99.90;;;;;;4973595;28;20031;-74
2022/05/23 02:19:02;;;;;;;3.80;2.00;;;14.90;99.90;;;;;;4954889;28;20570;-75
2022/05/23 02:21:27;;;;;;;3.53;2.22;;;14.90;99.90;;;;;;4984389;28;20031;-74
2022/05/23 02:23:53;;;;;;;4.30;2.03;;;14.90;99.90;;;;;;4971233;28;20031;-75
2022/05/23 02:26:19;;;;;;;3.50;2.00;;;14.90;99.90;;;;;;4970987;28;20036;-75
2022/05/23 02:28:57;;;;;;;2.72;1.67;;;14.90;99.90;;;;;;4974701;28;20605;-74
2022/05/23 02:31:24;;;;;;;4.28;2.00;;;14.90;99.90;;;;;;4968403;28;20050;-74
2022/05/23 02:33:52;;;;;;;4.32;2.20;;;14.90;99.90;;;;;;4977197;28;20065;-75
2022/05/23 02:36:21;;;;;;;2.42;1.98;;;14.90;99.90;;;;;;4967601;28;20027;-75
2022/05/23 02:38:46;;;;;;;4.05;1.75;;;14.80;99.90;;;;;;4975076;28;20082;-73
2022/05/23 02:41:12;;;;;;;3.90;2.00;;;14.80;99.90;;;;;;4973304;28;20078;-71
2022/05/23 02:43:42;;;;;;;4.10;2.20;;;14.80;99.90;;;;;;4969712;28;20594;-75
2022/05/23 02:46:16;;;;;;;4.00;1.98;;;14.80;99.90;;;;;;4973043;28;20030;-74
2022/05/23 02:48:42;;;;;;;4.35;2.03;;;14.80;99.90;;;;;;4969992;28;20034;-73
2022/05/23 02:51:14;;;;;;;4.10;2.00;;;14.80;99.90;;;;;;4970658;28;20110;-75
2022/05/23 02:53:40;;;;;;;2.38;1.80;;;14.70;99.90;;;;;;4954883;28;20042;-75
2022/05/23 02:56:15;;;;;;;3.83;2.28;;;14.80;99.90;;;;;;4970619;28;20387;-74
2022/05/23 02:58:49;;;;;;;3.22;1.90;;;14.80;99.90;;;;;;4968713;28;20116;-74
2022/05/23 03:01:15;;;;;;;6.00;2.35;;;14.80;99.90;;;;;;4969463;28;20023;-74
2022/05/23 03:03:41;;;;;;;4.90;1.92;;;14.80;99.90;;;;;;4956666;28;20031;-75
2022/05/23 03:06:10;;;;;;;6.55;2.75;;;14.90;99.90;;;;;;4955875;28;20027;-75
2022/05/23 03:08:36;;;;;;;2.88;2.05;;;15.00;99.90;;;;;;4975507;28;20026;-73
2022/05/23 03:11:14;;;;;;;7.38;2.28;;;15.00;99.90;;;;;;4974455;28;20041;-74
2022/05/23 03:13:39;;;;;;;3.97;2.20;;;15.10;99.90;;;;;;4969581;28;20039;-74
2022/05/23 03:16:10;;;;;;;3.58;1.77;;;15.10;99.90;;;;;;4974315;28;20451;-75
2022/05/23 03:18:36;;;;;;;2.80;2.10;;;15.10;99.90;;;;;;4958838;28;20031;-74
2022/05/23 03:27:05;;;;;;;5.03;2.28;;;15.20;99.90;;;;;;4970091;28;20049;-74
2022/05/23 03:29:37;;;;;;;4.88;2.50;;;15.30;99.90;;;;;;4968363;28;20049;-74
2022/05/23 03:32:06;;;;;;;5.20;2.25;;;15.40;99.90;;;;;;4969084;28;20161;-73
2022/05/23 03:34:31;;;;;;;3.17;1.60;;;15.50;99.90;;;;;;4969803;28;20041;-74
2022/05/23 03:36:57;;;;;;;2.58;1.50;;;15.60;99.90;;;;;;4952653;28;20034;-73
2022/05/23 03:39:25;;;;;;;3.45;1.77;;;15.80;99.90;;;;;;4966497;28;20419;-74
2022/05/23 03:41:52;;;;;;;3.25;1.50;;;15.90;99.90;;;;;;4966380;28;20038;-74
2022/05/23 03:44:18;;;;;;;2.45;1.40;;;16.10;99.70;;;;;;4949649;28;20037;-74
2022/05/23 03:46:44;;;;;;;2.30;1.50;;;16.30;99.50;;;;;;4966355;28;20027;-74
2022/05/23 03:49:13;;;;;;;1.90;1.17;;;16.40;99.00;;;;;;4968305;28;20076;-73
2022/05/23 03:51:42;;;;;;;2.03;1.60;;;16.50;98.60;;;;;;4956057;28;20027;-74
2022/05/23 03:54:07;;;;;;;3.28;1.70;;;16.60;99.10;;;;;;4966983;28;20058;-73
2022/05/23 03:56:33;;;;;;;2.20;1.63;;;16.50;99.90;;;;;;4954317;28;20058;-73
2022/05/23 03:59:11;;;;;;;3.40;2.17;;;16.40;99.90;;;;;;4967216;28;20030;-74
2022/05/23 04:01:39;;;;;;;5.50;1.98;;;16.30;99.90;;;;;;4969263;28;20039;-75
2022/05/23 04:04:05;;;;;;;3.40;2.00;;;16.10;99.90;;;;;;4968467;28;20060;-75
2022/05/23 04:06:39;;;;;;;7.40;2.42;;;16.00;99.90;;;;;;4968370;28;20031;-75
2022/05/23 04:09:05;;;;;;;2.58;1.90;;;16.00;99.90;;;;;;4974054;28;20105;-75
2022/05/23 04:11:37;;;;;;;3.58;2.05;;;15.90;99.90;;;;;;4968257;28;20126;-74
2022/05/23 04:14:09;;;;;;;3.65;2.08;;;15.80;99.90;;;;;;4970842;28;20039;-74
2022/05/23 04:16:34;;;;;;;3.50;2.05;;;15.80;99.90;;;;;;4966595;28;20034;-74
2022/05/23 04:19:12;;;;;;;2.70;1.90;;;15.70;99.90;;;;;;4968196;28;20030;-75
2022/05/23 04:21:42;;;;;;;4.55;2.35;;;15.70;99.90;;;;;;4968942;28;20019;-75
2022/05/23 04:24:09;;;;;;;3.35;2.03;;;15.60;99.90;;;;;;4967705;28;20046;-75
2022/05/23 04:26:41;;;;;;;3.88;2.50;;;15.60;99.90;;;;;;4972731;28;20042;-75
2022/05/23 04:29:07;;;;;;;4.53;2.72;;;15.60;99.90;;;;;;4969932;28;20058;-74
2022/05/23 04:31:34;;;;;;;5.35;2.22;;;15.50;99.90;;;;;;4950573;28;20703;-74
2022/05/23 04:36:50;;;;;;;4.00;2.60;;;15.40;99.90;;;;;;4971612;28;20046;-76
2022/05/23 04:39:16;;;;;;;4.80;2.03;;;15.30;99.90;;;;;;4966959;28;20197;-75
2022/05/23 04:41:42;;;;;;;5.05;2.70;;;15.30;99.90;;;;;;4976869;28;20027;-74
2022/05/23 04:44:14;;;;;;;4.38;2.28;;;15.20;99.90;;;;;;4967177;28;20526;-76
2022/05/23 04:49:42;;;;;;;5.82;2.75;;;15.20;99.90;;;;;;4968853;28;20082;-76
2022/05/23 04:52:10;;;;;;;3.63;2.80;;;15.20;99.90;;;;;;4969102;28;20030;-75
2022/05/23 04:54:40;;;;;;;4.45;2.78;;;15.20;99.90;;;;;;4967496;28;20058;-75
2022/05/23 04:57:07;;;;;;;7.45;2.67;;;15.20;99.90;;;;;;4968784;28;20030;-74
2022/05/23 04:59:34;;;;;;;3.75;2.38;;;15.20;99.90;;;;;;4968933;28;20025;-74
2022/05/23 05:02:06;;;;;;;3.72;2.67;;;15.30;99.90;;;;;;4968325;28;20035;-73
2022/05/23 05:04:38;;;;;;;5.10;2.28;;;15.30;99.90;;;;;;4954122;28;20026;-76
2022/05/23 05:07:04;;;;;;;4.75;2.45;;;15.20;99.90;;;;;;4968770;28;20435;-75
2022/05/23 05:09:31;;;;;;;5.90;2.85;;;15.30;99.90;;;;;;4973085;28;20074;-75
2022/05/23 05:11:56;;;;;;;4.25;2.25;;;15.30;99.90;;;;;;4976477;28;20063;-76
2022/05/23 05:14:22;;;;;;;4.68;2.40;;;15.30;99.90;;;;;;4960693;28;20030;-79
2022/05/23 05:16:49;;;;;;;5.45;2.88;;;15.30;99.90;;;;;;4958856;28;20101;-80
2022/05/23 05:19:15;;;;;;;4.30;2.85;;;15.30;99.90;;;;;;4961269;28;20424;-77
2022/05/23 05:21:41;;;;;;;5.93;2.58;;;15.30;99.90;;;;;;4982448;28;20019;-78
2022/05/23 05:24:10;;;;;;;8.85;2.50;;;15.30;99.90;;;;;;4978073;28;20092;-77
2022/05/23 05:26:35;;;;;;;5.28;3.10;;;15.30;99.90;;;;;;4977181;28;20031;-78
2022/05/23 05:29:04;;;;;;;5.70;2.42;;;15.40;99.90;;;;;;4957174;28;20038;-77
2022/05/23 05:31:52;;;;;;;6.30;2.60;;;15.40;99.90;;;;;;4966870;28;20399;-80
2022/05/23 05:34:29;;;;;;;6.82;2.78;;;15.40;99.90;;;;;;4981383;28;20047;-80
2022/05/23 05:37:05;;;;;;;6.03;2.63;;;15.60;99.90;;;;;;4993593;28;20031;-79
2022/05/23 05:39:36;;;;;;;3.72;2.60;;;15.60;99.90;;;;;;4981248;28;20050;-76
2022/05/23 05:42:11;;;;;;;3.70;2.50;;;15.70;99.90;;;;;;4962565;28;20042;-78
2022/05/23 05:44:45;;;;;;;4.13;2.40;;;15.80;99.90;;;;;;4966910;28;20492;-80
2022/05/23 05:47:15;;;;;;;;;;;15.90;99.90;;;;;;4980799;28;20035;-78
2022/05/23 05:49:47;;;;;;;6.95;2.50;;;16.00;99.90;;;;;;4964202;28;20362;-80
2022/05/23 05:52:15;;;;;;;3.97;2.80;;;16.00;99.90;;;;;;4965739;28;20029;-78
2022/05/23 05:54:47;;;;;;;5.25;2.63;;;16.10;99.90;;;;;;4964797;28;20039;-79
2022/05/23 05:57:15;;;;;;;5.07;2.40;;;16.20;99.90;;;;;;4985992;28;20049;-80
2022/05/23 05:59:41;;;;;;;4.18;2.83;;;16.30;99.90;;;;;;4976527;28;20027;-80
2022/05/23 06:02:10;;;;;;;6.85;2.70;;;16.50;99.90;;;;;;4958383;28;20057;-77
2022/05/23 06:04:36;;;;;;;5.68;2.40;;;16.50;99.90;;;;;;4969843;28;20407;-75
2022/05/23 06:12:31;;;;;;;;;;;16.90;99.90;;;;;;4967323;28;20050;-75
2022/05/23 06:14:57;;;;;;;4.50;2.53;;;17.10;99.90;;;;;;4973962;28;19913;-73
2022/05/23 06:17:24;;;;;;;3.60;2.05;;;17.20;99.90;;;;;;4973893;28;20022;-75
2022/05/23 06:19:49;;;;;;;3.50;2.30;;;17.30;99.90;;;;;;4981144;28;20506;-76
2022/05/23 06:22:17;;;;;;;5.18;2.25;;;17.30;99.90;;;;;;4956069;28;20031;-75
2022/05/23 06:24:46;;;;;;;4.32;2.42;;;17.50;99.90;;;;;;4968222;28;20027;-79
2022/05/23 06:27:17;;;;;;;7.35;2.38;;;17.60;99.90;;;;;;4968210;28;20054;-78
2022/05/23 06:29:44;;;;;;;4.95;1.90;;;17.70;99.90;;;;;;4983756;28;20026;-79
2022/05/23 06:32:16;;;;;;;7.10;2.40;;;17.80;99.90;;;;;;4968005;28;20456;-78
2022/05/23 06:34:42;;;;;;;2.90;2.10;;;17.90;99.90;;;;;;4963719;28;20065;-79
2022/05/23 06:37:14;;;;;;;2.70;2.00;;;18.00;99.90;;;;;;4983933;28;20526;-80
2022/05/23 06:39:52;;;;;;;6.45;2.22;;;18.10;99.90;;;;;;4969162;28;20038;-79
2022/05/23 06:42:19;;;;;;;3.90;2.00;;;18.20;99.90;;;;;;4981335;28;20031;-77
2022/05/23 06:44:50;;;;;;;6.20;1.90;;;18.40;99.90;;;;;;4972388;28;20039;-77
2022/05/23 06:47:19;;;;;;;5.38;1.48;;;18.60;99.90;;;;;;4983527;28;20027;-76
2022/05/23 06:49:45;;;;;;;4.25;1.42;;;18.70;99.90;;;;;;4983972;28;20035;-78
2022/05/23 06:52:10;;;;;;;4.72;1.55;;;18.80;99.90;;;;;;4964668;28;20045;-76
2022/05/23 06:54:36;;;;;;;2.10;1.58;;;18.90;99.90;;;;;;4970678;28;20031;-74
2022/05/23 06:57:02;;;;;;;5.25;1.73;;;19.10;99.90;;;;;;4967944;28;20037;-74
2022/05/23 06:59:28;;;;;;;2.67;1.65;;;19.20;99.90;;;;;;4956767;28;20510;-78
2022/05/23 07:01:54;;;;;;;3.22;1.73;;;19.30;99.90;;;;;;4971353;28;20026;-74
2022/05/23 07:04:20;;;;;;;3.75;1.83;;;19.50;99.90;;;;;;4961312;28;20038;-77
2022/05/23 07:12:20;;;;;;;4.28;1.98;;;19.60;99.90;;;;;;4979993;28;19941;-78
2022/05/23 07:14:47;;;;;;;6.65;2.67;;;19.60;99.90;;;;;;4975744;28;20047;-76
2022/05/23 07:17:19;;;;;;;4.82;2.25;;;19.80;99.90;;;;;;4958240;28;20022;-77
2022/05/23 07:19:48;;;;;;;5.05;2.00;;;19.80;99.90;;;;;;4956790;28;20399;-77
2022/05/23 07:22:17;;;;;;;3.83;2.10;;;20.00;99.90;;;;;;4956642;28;20023;-77
2022/05/23 07:24:44;;;;;;;3.10;1.60;;;20.10;99.90;;;;;;4972603;28;20042;-77
2022/05/23 07:27:13;;;;;;;3.45;2.03;;;20.20;99.90;;;;;;4975942;28;20065;-75
2022/05/23 07:29:45;;;;;;;3.70;1.60;;;20.40;99.90;;;;;;4978604;28;20030;-77
2022/05/23 07:32:12;;;;;;;4.32;1.80;;;20.50;99.90;;;;;;4977242;28;20078;-75
2022/05/23 07:34:38;;;;;;;2.03;1.70;;;20.70;99.80;;;;;;4977329;28;20101;-77
2022/05/23 07:37:10;;;;;;;3.58;2.17;;;20.80;99.50;;;;;;4961745;28;20026;-77
2022/05/23 07:39:42;;;;;;;4.38;2.58;;;20.90;99.20;;;;;;4973250;28;20035;-76
2022/05/23 07:42:14;;;;;;;3.97;2.15;;;20.90;99.10;;;;;;4972146;28;20030;-76
2022/05/23 07:44:43;;;;;;;3.03;1.80;;;21.00;99.00;;;;;;4976813;28;20038;-78
2022/05/23 07:47:11;;;;;;;3.42;1.90;;;21.00;98.80;;;;;;4958085;28;20042;-79
2022/05/23 07:49:37;;;;;;;3.50;2.33;;;21.00;98.60;;;;;;4969299;28;20027;-76
2022/05/23 07:52:03;;;;;;;7.03;2.42;;;21.00;98.00;;;;;;4966144;28;21382;-74
2022/05/23 08:02:46;;;;;;;5.70;2.10;;;21.20;97.50;;;;;;4973566;28;20109;-79
2022/05/23 08:05:15;;;;;;;5.32;2.10;;;21.40;97.20;;;;;;4973100;28;20014;-79
2022/05/23 08:07:41;;;;;;;3.83;2.25;;;21.50;97.10;;;;;;4975908;28;20082;-77
2022/05/23 08:10:20;;;;;;;3.30;1.90;;;21.50;96.90;;;;;;4975876;28;20061;-77
2022/05/23 08:13:09;;;;;;;2.78;1.70;;;21.60;96.30;;;;;;4955836;28;20045;-75
2022/05/23 08:15:39;;;;;;;4.20;2.15;;;21.70;96.00;;;;;;4960578;28;20046;-79
2022/05/23 08:18:06;;;;;;;3.67;2.33;;;21.80;95.80;;;;;;4968054;28;20022;-78
2022/05/23 08:20:32;;;;;;;2.95;2.15;;;21.90;95.70;;;;;;4972957;28;20081;-77
2022/05/23 08:22:59;;;;;;;5.60;2.53;;;21.90;95.60;;;;;;4975127;28;20031;-75
2022/05/23 08:25:25;;;;;;;3.63;2.17;;;21.90;95.50;;;;;;4977346;28;20039;-77
2022/05/23 08:27:54;;;;;;;4.35;2.35;;;21.90;95.50;;;;;;4973002;28;20026;-78
2022/05/23 08:30:21;;;;;;;5.25;2.15;;;21.90;95.40;;;;;;4970748;28;20045;-77
2022/05/23 08:32:47;;;;;;;4.93;2.47;;;21.90;95.40;;;;;;4973682;28;20500;-77
2022/05/23 08:35:13;;;;;;;5.97;2.30;;;21.90;95.60;;;;;;4967678;28;20033;-73
2022/05/23 08:37:42;;;;;;;4.90;2.20;;;22.00;95.50;;;;;;4970870;28;20094;-78
2022/05/23 08:40:09;;;;;;;5.68;2.45;;;22.10;95.30;;;;;;4971272;28;20018;-78
2022/05/23 08:42:57;;;;;;;5.22;2.50;;;22.20;95.20;;;;;;4974046;28;21302;-79
2022/05/23 08:45:34;;;;;;;2.63;2.00;;;22.30;95.10;;;;;;4920214;28;20042;-77
2022/05/23 08:48:02;;;;;;;3.58;2.53;;;22.30;95.10;;;;;;4977911;28;20092;-80
2022/05/23 08:50:50;;;;;;;4.93;2.03;;;22.30;95.00;;;;;;4971152;28;20101;-78
2022/05/23 08:53:25;;;;;;;4.88;2.45;;;22.30;94.90;;;;;;4978666;28;20027;-77
2022/05/23 08:55:55;;;;;;;6.30;2.33;;;22.30;95.00;;;;;;4968894;28;20026;-75
2022/05/23 08:58:43;;;;;;;4.45;2.42;;;22.30;95.10;;;;;;4975681;28;20073;-77
2022/05/23 09:01:20;;;;;;;3.38;2.22;;;22.40;95.20;;;;;;4976547;28;20149;-79
2022/05/23 09:04:13;;;;;;;4.78;2.80;;;22.50;94.90;;;;;;4969157;28;20023;-76
2022/05/23 09:06:48;;;;;;;5.72;2.53;;;22.80;94.80;;;;;;4933027;28;20035;-77
2022/05/23 09:09:20;;;;;;;3.38;2.25;;;23.00;94.40;;;;;;4973087;28;20083;-78
2022/05/23 09:11:50;;;;;;;4.40;2.33;;;23.20;94.20;;;;;;4975711;28;20029;-77
2022/05/23 09:14:18;;;;;;;5.22;2.45;;;23.20;93.80;;;;;;4959747;28;20031;-75
2022/05/23 09:16:50;;;;;;;7.07;2.58;;;23.30;93.50;;;;;;4976409;28;20096;-76
2022/05/23 09:19:41;;;;;;;7.18;2.92;;;23.30;93.50;;;;;;4978636;28;20041;-75
2022/05/23 09:22:18;;;;;;;7.72;3.20;;;23.40;93.30;;;;;;4979264;28;20026;-76
2022/05/23 09:24:57;;;;;;;5.47;2.83;;;23.40;93.20;;;;;;4955808;28;20241;-77
2022/05/23 09:27:31;;;;;;;7.35;3.08;;;23.40;93.20;;;;;;4973186;28;20023;-77
2022/05/23 09:29:59;;;;;;;7.60;3.20;;;23.40;93.20;;;;;;4975435;28;20111;-76
2022/05/23 09:32:48;;;;;;;4.65;2.58;;;23.40;93.30;;;;;;4972500;28;20427;-78
2022/05/23 09:35:27;;;;;;;5.60;3.08;;;23.40;93.30;;;;;;4973448;28;20035;-78
2022/05/23 09:38:19;;;;;;;5.45;3.05;;;23.40;93.40;;;;;;4973976;28;20054;-77
2022/05/23 09:40:45;;;;;;;6.97;3.05;;;23.40;93.50;;;;;;4945958;28;20035;-77
2022/05/23 09:49:23;;;;;;;3.75;2.60;;;23.90;93.20;;;;;;4970215;28;20073;-75
2022/05/23 09:51:55;;;;;;;7.72;2.78;;;24.00;93.00;;;;;;4976562;28;20018;-77
2022/05/23 09:54:26;;;;;;;6.45;2.83;;;24.00;92.80;;;;;;4977608;28;20031;-77
2022/05/23 09:56:53;;;;;;;4.68;2.67;;;23.90;92.60;;;;;;4972213;28;20023;-77
2022/05/23 09:59:27;;;;;;;7.15;3.22;;;23.80;92.70;;;;;;4975484;28;20034;-78
2022/05/23 10:01:53;;;;;;;6.28;3.47;;;23.70;93.20;;;;;;4957986;28;20015;-78
2022/05/23 10:04:29;;;;;;;5.72;3.30;;;23.50;93.00;;;;;;4968161;28;20037;-78
2022/05/23 10:06:55;;;;;;;8.65;3.50;;;23.40;93.40;;;;;;4966919;28;20110;-77
2022/05/23 10:09:35;;;;;;;5.30;2.90;;;23.30;93.40;;;;;;4969910;28;20007;-78
2022/05/23 10:12:06;;;;;;;7.00;3.40;;;23.10;93.70;;;;;;4942008;28;20041;-76
2022/05/23 10:14:46;;;;;;;6.28;3.17;;;23.00;94.00;;;;;;4951559;28;20031;-78
2022/05/23 10:17:29;;;;;;;5.28;3.13;;;22.90;94.70;;;;;;4963116;28;20030;-76
2022/05/23 10:20:23;;;;;;;3.83;3.07;;;22.80;95.90;;;;;;4969190;28;20027;-77
2022/05/23 10:22:58;;;;;;;;;;;22.70;96.40;;;;;;4970090;28;20468;-76
2022/05/23 10:25:24;;;;;;;;;;;22.60;97.00;;;;;;4969414;28;19932;-73
2022/05/23 10:28:00;;;;;;;7.22;3.70;;;22.50;97.60;;;;;;4969927;28;19960;-76
2022/05/23 10:30:36;;;;;;;5.75;3.45;;;22.50;98.60;;;;;;4955020;28;20117;-77
2022/05/23 10:33:10;;;;;;;13.55;5.82;;;22.40;99.10;;;;;;4968543;28;20487;-76
2022/05/23 10:35:43;;;;;;;11.25;4.30;;;22.30;99.90;;;;;;4972255;28;20474;-75
2022/05/23 10:43:57;;;;;;;9.48;3.55;;;22.10;99.90;;;;;;4967010;28;20042;-74
2022/05/23 10:46:26;;;;;;;5.18;3.60;;;22.00;99.90;;;;;;4962501;28;20030;-74
2022/05/23 10:48:59;;;;;;;7.25;3.75;;;22.00;99.90;;;;;;4949700;28;20458;-74
2022/05/23 10:51:37;;;;;;;7.43;3.08;;;22.00;99.90;;;;;;4946804;28;20366;-74
2022/05/23 10:54:35;;;;;;;5.55;3.38;;;21.90;99.90;;;;;;4960424;28;20089;-75
2022/05/23 10:57:02;;;;;;;6.72;3.40;;;21.90;99.90;;;;;;4975952;28;20112;-75
2022/05/23 10:59:34;;;;;;;5.13;3.40;;;21.80;99.90;;;;;;4969007;28;20033;-74
2022/05/23 11:02:09;;;;;;;8.30;3.92;;;21.70;99.90;;;;;;4964217;28;20023;-75
2022/05/23 11:04:54;;;;;;;10.65;4.40;;;21.60;99.90;;;;;;4969594;28;20089;-74
2022/05/23 11:07:42;;;;;;;8.73;4.47;;;21.50;99.90;;;;;;4966953;28;20046;-77
2022/05/23 11:10:14;;;;;;;11.90;4.18;;;21.40;99.90;;;;;;4970154;28;20026;-75
2022/05/23 11:12:46;;;;;;;12.77;5.97;;;21.30;99.90;;;;;;4967395;28;20054;-75
2022/05/23 11:15:38;;;;;;;7.50;4.03;;;21.20;99.90;;;;;;4981020;28;20030;-75
2022/05/23 11:18:22;;;;;;;12.18;4.72;;;21.00;99.90;;;;;;4957920;28;20455;-74
2022/05/23 11:20:53;;;;;;;14.23;4.63;;;20.40;99.90;;;;;;4969892;28;20084;-75
2022/05/23 11:23:21;;;;;;;9.85;4.05;;;19.80;99.90;;;;;;4961547;28;20024;-74
2022/05/23 11:25:53;;;;;;;8.98;3.75;;;19.30;99.90;;;;;;4961876;28;20107;-74
2022/05/23 11:34:16;;;;;;;11.40;3.90;;;18.40;99.90;;;;;;4964735;28;20097;-73
2022/05/23 11:36:56;;;;;;;13.57;4.83;;;18.30;99.90;;;;;;4951719;28;20042;-73
2022/05/23 11:39:43;;;;;;;9.77;4.18;;;18.20;99.90;;;;;;4958107;28;20030;-73
2022/05/23 11:42:34;;;;;;;10.55;4.47;;;18.20;99.90;;;;;;4963956;28;20026;-73
2022/05/23 11:47:51;;;;;;;10.00;3.20;;;18.20;99.90;;;;;;4969298;28;20041;-74
2022/05/23 11:50:21;;;;;;;9.88;4.18;;;18.10;99.90;;;;;;4946735;28;20105;-74
2022/05/23 11:53:20;;;;;;;12.13;4.88;;;18.00;99.90;;;;;;4964144;28;20043;-74
2022/05/23 11:55:52;;;;;;;8.38;3.55;;;17.80;99.90;;;;;;4960391;28;20066;-73
2022/05/23 11:58:46;;;;;;;11.15;3.63;;;17.50;99.90;;;;;;4965055;28;20015;-74
2022/05/23 12:01:14;;;;;;;17.75;3.92;;;17.40;99.90;;;;;;4960164;28;20042;-75
2022/05/23 12:03:55;;;;;;;6.43;3.33;;;17.30;99.90;;;;;;4966042;28;20034;-74
2022/05/23 12:06:24;;;;;;;13.60;4.60;;;17.20;99.90;;;;;;4966533;28;20034;-74
2022/05/23 12:09:05;;;;;;;13.32;4.03;;;17.30;99.90;;;;;;4952258;28;20034;-73
2022/05/23 12:12:14;;;;;;;10.60;3.67;;;17.30;99.90;;;;;;4977313;28;20027;-75
2022/05/23 12:14:39;;;;;;;8.75;3.15;;;17.40;99.90;;;;;;4965983;28;20442;-74
2022/05/23 12:17:20;;;;;;;11.57;2.90;;;17.50;99.90;;;;;;4966910;28;20109;-75
2022/05/23 12:19:56;;;;;;;5.60;2.70;;;17.60;99.90;;;;;;4962569;28;20062;-75
2022/05/23 12:22:28;;;;;;;11.27;3.53;;;17.70;99.90;;;;;;4980777;28;20543;-74
2022/05/23 12:25:00;;;;;;;9.20;3.28;;;17.80;99.90;;;;;;4966308;28;20034;-73
2022/05/23 12:27:33;;;;;;;11.93;3.03;;;18.00;99.90;;;;;;4964834;28;20368;-74
2022/05/23 12:30:20;;;;;;;11.52;3.53;;;18.20;99.90;;;;;;4946217;28;20022;-74
2022/05/23 12:32:59;;;;;;;10.43;3.22;;;18.50;99.90;;;;;;4946636;28;20035;-75
2022/05/23 12:35:34;;;;;;;7.03;3.03;;;18.60;99.90;;;;;;4967660;28;20448;-74
2022/05/23 12:38:05;;;;;;;8.65;3.05;;;18.90;99.90;;;;;;4951473;28;20031;-74
2022/05/23 12:40:47;;;;;;;7.85;2.97;;;19.10;99.90;;;;;;4964549;28;20035;-72
2022/05/23 12:43:34;;;;;;;6.72;2.40;;;19.40;99.90;;;;;;4963488;28;20034;-73
2022/05/23 12:46:04;;;;;;;11.23;2.70;;;19.70;99.90;;;;;;4957826;28;20120;-73
2022/05/23 12:49:05;;;;;;;7.93;2.58;;;19.90;99.90;;;;;;4966086;28;20022;-75
2022/05/23 12:51:49;;;;;;;9.18;3.33;;;20.20;99.90;;;;;;4884802;29;20486;-73
2022/05/23 12:54:23;;;;;;;11.50;3.25;;;20.50;99.90;;;;;;4959134;28;20551;-74
2022/05/23 12:57:27;;;;;;;8.02;2.85;;;20.70;99.90;;;;;;4962651;28;20241;-74
2022/05/23 13:00:03;;;;;;;8.50;2.13;;;20.90;99.90;;;;;;4965245;28;20058;-74
2022/05/23 13:02:37;;;;;;;7.50;2.55;;;21.10;99.90;;;;;;4961633;28;20061;-73
2022/05/23 13:05:13;;;;;;;7.20;2.10;;;21.30;99.90;;;;;;4957494;28;20035;-72
2022/05/23 13:08:01;;;;;;;8.52;2.45;;;21.50;99.90;;;;;;4961872;28;20049;-74
2022/05/23 13:10:33;;;;;;;7.07;2.15;;;21.60;99.90;;;;;;4963873;28;20026;-73
2022/05/23 13:13:07;;;;;;;6.25;2.38;;;21.70;99.90;;;;;;4965040;28;20026;-74
2022/05/23 13:15:35;;;;;;;8.73;2.75;;;21.80;99.90;;;;;;4960510;28;20510;-74
2022/05/23 13:23:35;;;;;;;4.78;1.88;;;21.90;99.90;;;;;;4962841;28;20077;-75
2022/05/23 13:26:10;;;;;;;6.10;1.65;;;21.90;99.90;;;;;;4957147;28;20053;-73
2022/05/23 13:28:49;;;;;;;6.53;2.03;;;21.90;99.90;;;;;;4958894;28;20099;-76
2022/05/23 13:31:27;;;;;;;8.07;2.53;;;21.90;99.90;;;;;;4960652;28;20105;-74
2022/05/23 13:33:56;;;;;;;9.38;2.05;;;22.00;99.90;;;;;;4941299;28;20031;-76
2022/05/23 13:36:24;;;;;;;6.75;1.75;;;22.10;99.90;;;;;;4963446;28;20030;-74
2022/05/23 13:39:05;;;;;;;6.60;1.77;;;22.10;99.90;;;;;;4953009;28;20039;-74
2022/05/23 13:41:32;;;;;;;8.88;1.67;;;22.20;99.90;;;;;;4959692;28;20096;-74
2022/05/23 13:43:58;;;;;;;6.72;2.13;;;22.20;99.90;;;;;;4957681;28;20035;-74
2022/05/23 13:46:33;;;;;;;8.68;1.63;;;22.20;99.90;;;;;;4964427;28;20487;-73
2022/05/23 13:49:08;;;;;;;6.88;1.73;;;22.30;99.90;;;;;;4958204;28;20066;-74
2022/05/23 13:51:43;;;;;;;5.53;1.83;;;22.30;99.90;;;;;;4966091;28;20023;-75
2022/05/23 13:54:31;;;;;;;6.78;1.55;;;22.40;99.90;;;;;;4948140;28;20750;-73
2022/05/23 13:57:13;;;;;;;6.75;1.55;;;22.40;99.90;;;;;;4961826;28;20031;-75
2022/05/23 13:59:52;;;;;;;4.55;1.33;;;22.50;99.90;;;;;;4959897;28;20124;-75
2022/05/23 14:02:22;;;;;;;6.05;2.38;;;22.40;99.90;;;;;;4957931;28;20050;-75
2022/05/23 14:04:49;;;;;;;4.78;2.25;;;22.50;99.90;;;;;;4962623;28;20156;-75
2022/05/23 14:07:20;;;;;;;7.90;1.95;;;22.50;99.90;;;;;;4966678;28;20126;-75
2022/05/23 14:09:49;;;;;;;8.98;2.22;;;22.60;99.90;;;;;;4956522;29;20031;-75
2022/05/23 14:12:21;;;;;;;5.18;1.30;;;22.60;99.90;;;;;;4939927;29;20039;-76
2022/05/23 14:15:02;;;;;;;9.05;2.38;;;22.60;99.90;;;;;;4956199;29;20035;-76